createdAt,value
2023-03-07T00:01:32.409Z,98070
2023-03-07T00:03:30.605Z,98070
2023-03-07T00:05:30.462Z,98070
2023-03-07T00:07:29.896Z,98070
2023-03-07T00:09:29.589Z,98070
2023-03-07T00:11:29.555Z,98070
2023-03-07T00:13:30.363Z,98070
2023-03-07T00:15:29.033Z,98070
2023-03-07T00:17:28.710Z,98070
2023-03-07T00:19:28.558Z,98070
2023-03-07T00:21:28.319Z,98070
2023-03-07T00:23:28.123Z,98070
2023-03-07T00:25:28.089Z,98070
2023-03-07T00:27:30.050Z,98070
2023-03-07T00:29:27.795Z,98060
2023-03-07T00:31:27.519Z,98060
2023-03-07T00:33:27.472Z,98060
2023-03-07T00:35:26.871Z,98060
2023-03-07T00:37:26.749Z,98060
2023-03-07T00:39:26.554Z,98060
2023-03-07T00:41:27.945Z,98060
2023-03-07T00:43:27.110Z,98060
2023-03-07T00:45:26.019Z,98060
2023-03-07T00:47:25.727Z,98060
2023-03-07T00:49:26.767Z,98060
2023-03-07T00:51:25.381Z,98060
2023-03-07T00:53:26.037Z,98060
2023-03-07T00:55:25.066Z,98060
2023-03-07T00:57:24.643Z,98060
2023-03-07T00:59:24.920Z,98060
2023-03-07T01:01:25.340Z,98060
2023-03-07T01:03:25.623Z,98060
2023-03-07T01:05:24.145Z,98060
2023-03-07T01:07:23.853Z,98060
2023-03-07T01:09:23.792Z,98060
2023-03-07T01:11:23.509Z,98060
2023-03-07T01:13:23.259Z,98060
2023-03-07T01:15:22.933Z,98060
2023-03-07T01:17:22.749Z,98060
2023-03-07T01:19:22.755Z,98060
2023-03-07T01:21:24.882Z,98060
2023-03-07T01:23:22.253Z,98060
2023-03-07T01:25:22.233Z,98060
2023-03-07T01:27:22.358Z,98060
2023-03-07T01:29:21.400Z,98060
2023-03-07T01:31:22.299Z,98060
2023-03-07T01:33:21.203Z,98060
2023-03-07T01:35:20.992Z,98060
2023-03-07T01:37:20.957Z,98060
2023-03-07T01:39:27.313Z,98060
2023-03-07T01:41:22.704Z,98060
2023-03-07T01:43:26.834Z,98060
2023-03-07T01:45:50.736Z,98060
2023-03-07T01:47:24.701Z,98060
2023-03-07T01:49:29.493Z,98060
2023-03-07T01:51:20.309Z,98060
2023-03-07T01:53:19.283Z,98060
2023-03-07T01:55:24.446Z,98060
2023-03-07T01:57:22.451Z,98060
2023-03-07T01:59:24.485Z,98060
2023-03-07T02:01:18.950Z,98070
2023-03-07T02:03:25.722Z,98070
2023-03-07T02:05:23.685Z,98070
2023-03-07T02:07:21.317Z,98070
2023-03-07T02:09:21.285Z,98070
2023-03-07T02:11:17.481Z,98070
2023-03-07T02:13:17.655Z,98070
2023-03-07T02:15:17.216Z,98070
2023-03-07T02:17:17.332Z,98070
2023-03-07T02:19:29.789Z,98070
2023-03-07T02:21:25.638Z,98070
2023-03-07T02:23:23.608Z,98070
2023-03-07T02:25:22.030Z,98070
2023-03-07T02:27:16.259Z,98070
2023-03-07T02:29:17.548Z,98070
2023-03-07T02:31:15.646Z,98070
2023-03-07T02:33:15.890Z,98070
2023-03-07T02:35:17.796Z,98070
2023-03-07T02:37:18.560Z,98070
2023-03-07T02:39:15.816Z,98060
2023-03-07T02:41:19.915Z,98060
2023-03-07T02:43:15.725Z,98060
2023-03-07T02:45:16.826Z,98060
2023-03-07T02:47:14.185Z,98060
2023-03-07T02:49:13.660Z,98060
2023-03-07T02:51:16.462Z,98060
2023-03-07T02:53:13.404Z,98060
2023-03-07T02:55:18.280Z,98060
2023-03-07T02:57:13.685Z,98060
2023-03-07T02:59:12.659Z,98060
2023-03-07T03:01:12.621Z,98060
2023-03-07T03:03:12.239Z,98060
2023-03-07T03:05:12.316Z,98060
2023-03-07T03:07:12.342Z,98060
2023-03-07T03:09:11.884Z,98060
2023-03-07T03:11:11.548Z,98060
2023-03-07T03:13:11.589Z,98060
2023-03-07T03:15:11.592Z,98060
2023-03-07T03:17:11.078Z,98060
2023-03-07T03:19:10.720Z,98060
2023-03-07T03:21:11.544Z,98060
2023-03-07T03:23:10.291Z,98060
2023-03-07T03:25:12.688Z,98060
2023-03-07T03:27:09.843Z,98060
2023-03-07T03:29:09.705Z,98060
2023-03-07T03:31:12.606Z,98060
2023-03-07T03:33:09.235Z,98060
2023-03-07T03:35:09.921Z,98070
2023-03-07T03:37:09.332Z,98070
2023-03-07T03:39:08.725Z,98070
2023-03-07T03:41:12.464Z,98070
2023-03-07T03:43:08.190Z,98070
2023-03-07T03:45:09.997Z,98070
2023-03-07T03:47:07.868Z,98070
2023-03-07T03:49:07.948Z,98070
2023-03-07T03:51:09.632Z,98070
2023-03-07T03:53:07.377Z,98070
2023-03-07T03:55:07.665Z,98070
2023-03-07T03:57:06.749Z,98070
2023-03-07T03:59:06.625Z,98070
2023-03-07T04:01:08.982Z,98070
2023-03-07T04:03:06.195Z,98070
2023-03-07T04:05:07.153Z,98070
2023-03-07T04:07:06.302Z,98070
2023-03-07T04:09:05.881Z,98070
2023-03-07T04:11:05.502Z,98070
2023-03-07T04:13:05.081Z,98070
2023-03-07T04:15:06.156Z,98070
2023-03-07T04:17:04.894Z,98070
2023-03-07T04:19:04.452Z,98070
2023-03-07T04:21:05.079Z,98070
2023-03-07T04:23:04.002Z,98070
2023-03-07T04:25:04.535Z,98070
2023-03-07T04:27:03.881Z,98070
2023-03-07T04:29:08.969Z,98070
2023-03-07T04:31:03.266Z,98070
2023-03-07T04:33:03.141Z,98070
2023-03-07T04:35:02.880Z,98070
2023-03-07T04:37:02.660Z,98070
2023-03-07T04:39:03.323Z,98070
2023-03-07T04:41:02.476Z,98070
2023-03-07T04:43:02.266Z,98070
2023-03-07T04:45:03.860Z,98080
2023-03-07T04:47:01.825Z,98080
2023-03-07T04:49:01.232Z,98080
2023-03-07T04:51:01.341Z,98080
2023-03-07T04:53:00.859Z,98090
2023-03-07T04:55:00.979Z,98090
2023-03-07T04:57:00.411Z,98090
2023-03-07T04:59:00.270Z,98090
2023-03-07T05:01:00.695Z,98090
2023-03-07T05:03:00.092Z,98090
2023-03-07T05:04:59.734Z,98090
2023-03-07T05:06:59.555Z,98090
2023-03-07T05:08:59.323Z,98090
2023-03-07T05:10:59.556Z,98090
2023-03-07T05:12:59.573Z,98090
2023-03-07T05:14:58.778Z,98090
2023-03-07T05:16:58.711Z,98090
2023-03-07T05:18:58.588Z,98090
2023-03-07T05:20:59.091Z,98100
2023-03-07T05:22:58.517Z,98110
2023-03-07T05:24:58.263Z,98110
2023-03-07T05:26:57.823Z,98110
2023-03-07T05:28:57.812Z,98110
2023-03-07T05:30:57.971Z,98110
2023-03-07T05:32:57.344Z,98110
2023-03-07T05:34:57.403Z,98110
2023-03-07T05:36:57.136Z,98110
2023-03-07T05:38:57.084Z,98110
2023-03-07T05:40:56.864Z,98110
2023-03-07T05:42:56.922Z,98110
2023-03-07T05:44:56.647Z,98110
2023-03-07T05:46:56.594Z,98110
2023-03-07T05:48:55.980Z,98110
2023-03-07T05:50:59.393Z,98110
2023-03-07T05:52:58.075Z,98110
2023-03-07T05:54:55.626Z,98110
2023-03-07T05:56:55.515Z,98110
2023-03-07T05:58:55.418Z,98110
2023-03-07T06:00:55.710Z,98110
2023-03-07T06:02:55.088Z,98110
2023-03-07T06:04:54.641Z,98120
2023-03-07T06:06:54.742Z,98120
2023-03-07T06:08:54.527Z,98120
2023-03-07T06:10:54.805Z,98120
2023-03-07T06:12:54.416Z,98120
2023-03-07T06:14:53.821Z,98120
2023-03-07T06:16:53.881Z,98120
2023-03-07T06:18:53.854Z,98120
2023-03-07T06:20:56.632Z,98120
2023-03-07T06:22:53.243Z,98120
2023-03-07T06:24:53.094Z,98120
2023-03-07T06:26:54.631Z,98120
2023-03-07T06:28:52.952Z,98130
2023-03-07T06:30:53.222Z,98130
2023-03-07T06:32:52.608Z,98130
2023-03-07T06:34:53.274Z,98130
2023-03-07T06:36:52.470Z,98130
2023-03-07T06:38:52.442Z,98130
2023-03-07T06:40:55.609Z,98130
2023-03-07T06:42:52.785Z,98130
2023-03-07T06:44:52.312Z,98140
2023-03-07T06:46:53.191Z,98140
2023-03-07T06:48:52.840Z,98140
2023-03-07T06:50:52.046Z,98140
2023-03-07T06:52:52.083Z,98140
2023-03-07T06:54:51.441Z,98140
2023-03-07T06:56:53.359Z,98140
2023-03-07T06:58:51.258Z,98140
2023-03-07T07:00:51.247Z,98140
2023-03-07T07:02:51.136Z,98140
2023-03-07T07:04:51.108Z,98140
2023-03-07T07:06:50.944Z,98140
2023-03-07T07:08:54.344Z,98140
2023-03-07T07:10:50.608Z,98140
2023-03-07T07:12:50.462Z,98140
2023-03-07T07:14:50.453Z,98150
2023-03-07T07:16:50.560Z,98160
2023-03-07T07:18:50.705Z,98160
2023-03-07T07:20:54.046Z,98160
2023-03-07T07:22:50.068Z,98160
2023-03-07T07:24:50.147Z,98160
2023-03-07T07:26:49.863Z,98160
2023-03-07T07:28:49.726Z,98160
2023-03-07T07:30:50.031Z,98160
2023-03-07T07:32:50.737Z,98160
2023-03-07T07:34:49.645Z,98160
2023-03-07T07:36:49.364Z,98160
2023-03-07T07:38:49.462Z,98160
2023-03-07T07:40:49.485Z,98160
2023-03-07T07:42:53.512Z,98160
2023-03-07T07:44:49.105Z,98170
2023-03-07T07:46:49.566Z,98170
2023-03-07T07:48:49.232Z,98170
2023-03-07T07:50:48.774Z,98170
2023-03-07T07:52:49.061Z,98170
2023-03-07T07:54:48.984Z,98170
2023-03-07T07:56:48.730Z,98170
2023-03-07T07:58:48.620Z,98180
2023-03-07T08:00:48.366Z,98180
2023-03-07T08:02:49.086Z,98180
2023-03-07T08:04:48.377Z,98180
2023-03-07T08:06:48.160Z,98180
2023-03-07T08:08:48.493Z,98180
2023-03-07T08:10:48.428Z,98180
2023-03-07T08:12:50.932Z,98180
2023-03-07T08:14:48.029Z,98180
2023-03-07T08:16:47.984Z,98180
2023-03-07T08:18:49.645Z,98180
2023-03-07T08:20:47.900Z,98180
2023-03-07T08:22:48.906Z,98180
2023-03-07T08:24:47.929Z,98180
2023-03-07T08:26:47.821Z,98180
2023-03-07T08:28:48.118Z,98180
2023-03-07T08:30:47.791Z,98180
2023-03-07T08:32:48.939Z,98180
2023-03-07T08:34:47.737Z,98180
2023-03-07T08:36:47.778Z,98180
2023-03-07T08:38:48.578Z,98180
2023-03-07T08:40:47.607Z,98180
2023-03-07T08:42:47.597Z,98180
2023-03-07T08:44:47.592Z,98180
2023-03-07T08:46:47.596Z,98180
2023-03-07T08:48:47.841Z,98180
2023-03-07T08:50:47.785Z,98180
2023-03-07T08:52:47.620Z,98180
2023-03-07T08:54:47.591Z,98180
2023-03-07T08:56:47.540Z,98180
2023-03-07T08:58:47.583Z,98180
2023-03-07T09:00:47.627Z,98180
2023-03-07T09:02:47.486Z,98180
2023-03-07T09:04:47.668Z,98180
2023-03-07T09:06:47.456Z,98180
2023-03-07T09:08:48.381Z,98180
2023-03-07T09:10:47.428Z,98180
2023-03-07T09:12:47.723Z,98180
2023-03-07T09:14:47.476Z,98180
2023-03-07T09:16:47.406Z,98180
2023-03-07T09:18:47.639Z,98180
2023-03-07T09:20:47.517Z,98180
2023-03-07T09:22:47.529Z,98180
2023-03-07T09:24:47.486Z,98180
2023-03-07T09:26:47.538Z,98180
2023-03-07T09:28:47.521Z,98180
2023-03-07T09:30:47.494Z,98180
2023-03-07T09:32:48.089Z,98180
2023-03-07T09:34:47.623Z,98180
2023-03-07T09:36:50.068Z,98180
2023-03-07T09:38:47.466Z,98180
2023-03-07T09:40:47.890Z,98180
2023-03-07T09:42:58.378Z,98180
2023-03-07T09:45:15.867Z,98180
2023-03-07T09:47:03.035Z,98180
2023-03-07T09:49:02.449Z,98180
2023-03-07T09:50:53.251Z,98180
2023-03-07T09:52:49.558Z,98180
2023-03-07T09:54:55.060Z,98180
2023-03-07T09:56:53.565Z,98180
2023-03-07T09:58:52.875Z,98180
2023-03-07T10:00:54.155Z,98180
2023-03-07T10:02:53.373Z,98180
2023-03-07T10:04:53.996Z,98180
2023-03-07T10:06:53.838Z,98180
2023-03-07T10:08:47.549Z,98180
2023-03-07T10:10:55.721Z,98180
2023-03-07T10:13:04.127Z,98180
2023-03-07T10:15:08.884Z,98180
2023-03-07T10:16:54.880Z,98180
2023-03-07T10:19:00.181Z,98180
2023-03-07T10:20:51.395Z,98180
2023-03-07T10:22:57.025Z,98180
2023-03-07T10:25:05.404Z,98180
2023-03-07T10:26:56.694Z,98180
2023-03-07T10:28:48.341Z,98180
2023-03-07T10:30:48.100Z,98180
2023-03-07T10:32:51.263Z,98180
2023-03-07T10:34:53.121Z,98180
2023-03-07T10:36:55.241Z,98180
2023-03-07T10:38:59.265Z,98180
2023-03-07T10:40:52.798Z,98180
2023-03-07T10:42:47.069Z,98180
2023-03-07T10:44:46.905Z,98180
2023-03-07T10:46:56.076Z,98180
2023-03-07T10:48:51.358Z,98180
2023-03-07T10:50:54.604Z,98180
2023-03-07T10:52:51.236Z,98170
2023-03-07T10:54:46.752Z,98170
2023-03-07T10:57:03.701Z,98170
2023-03-07T10:59:02.489Z,98170
2023-03-07T11:00:58.354Z,98170
2023-03-07T11:02:46.749Z,98160
2023-03-07T11:04:47.042Z,98160
2023-03-07T11:06:52.598Z,98160
2023-03-07T11:08:46.527Z,98160
2023-03-07T11:10:46.501Z,98160
2023-03-07T11:12:48.538Z,98160
2023-03-07T11:14:48.060Z,98160
2023-03-07T11:16:51.717Z,98160
2023-03-07T11:18:46.989Z,98160
2023-03-07T11:20:49.040Z,98160
2023-03-07T11:22:46.350Z,98160
2023-03-07T11:24:51.292Z,98160
2023-03-07T11:26:46.399Z,98160
2023-03-07T11:28:46.274Z,98160
2023-03-07T11:30:51.502Z,98160
2023-03-07T11:32:52.840Z,98160
2023-03-07T11:34:53.384Z,98160
2023-03-07T11:36:50.937Z,98160
2023-03-07T11:38:58.465Z,98160
2023-03-07T11:40:55.750Z,98160
2023-03-07T11:42:55.461Z,98170
2023-03-07T11:44:53.030Z,98180
2023-03-07T11:47:06.261Z,98190
2023-03-07T11:49:00.855Z,98190
2023-03-07T11:50:53.258Z,98190
2023-03-07T11:53:06.930Z,98190
2023-03-07T11:54:56.753Z,98190
2023-03-07T11:56:49.446Z,98190
2023-03-07T11:59:01.964Z,98190
2023-03-07T12:01:03.514Z,98190
2023-03-07T12:03:11.702Z,98190
2023-03-07T12:05:04.618Z,98190
2023-03-07T12:06:55.935Z,98190
2023-03-07T12:08:59.552Z,98190
2023-03-07T12:10:59.759Z,98190
2023-03-07T12:12:57.698Z,98190
2023-03-07T12:14:54.750Z,98190
2023-03-07T12:16:56.184Z,98190
2023-03-07T12:19:06.522Z,98190
2023-03-07T12:20:58.202Z,98190
2023-03-07T12:23:00.300Z,98190
2023-03-07T12:24:57.077Z,98190
2023-03-07T12:26:52.086Z,98190
2023-03-07T12:28:48.747Z,98190
2023-03-07T12:30:52.750Z,98190
2023-03-07T12:32:45.869Z,98190
2023-03-07T12:34:51.326Z,98180
2023-03-07T12:36:52.392Z,98180
2023-03-07T12:38:50.797Z,98170
2023-03-07T12:40:50.691Z,98170
2023-03-07T12:42:52.411Z,98170
2023-03-07T12:44:48.531Z,98170
2023-03-07T12:46:51.143Z,98170
2023-03-07T12:48:51.266Z,98170
2023-03-07T12:50:51.690Z,98170
2023-03-07T12:52:49.036Z,98170
2023-03-07T12:54:52.288Z,98170
2023-03-07T12:56:52.781Z,98170
2023-03-07T12:58:50.302Z,98170
2023-03-07T13:00:48.902Z,98170
2023-03-07T13:02:53.874Z,98170
2023-03-07T13:04:43.489Z,98170
2023-03-07T13:06:45.362Z,98170
2023-03-07T13:08:46.224Z,98170
2023-03-07T13:10:44.839Z,98170
2023-03-07T13:12:43.243Z,98170
2023-03-07T13:14:44.402Z,98170
2023-03-07T13:16:44.044Z,98160
2023-03-07T13:18:42.881Z,98160
2023-03-07T13:20:44.448Z,98160
2023-03-07T13:22:59.117Z,98160
2023-03-07T13:24:43.511Z,98160
2023-03-07T13:26:44.344Z,98160
2023-03-07T13:28:47.111Z,98160
2023-03-07T13:31:10.755Z,98160
2023-03-07T13:32:58.855Z,98160
2023-03-07T13:34:46.576Z,98160
2023-03-07T13:36:42.168Z,98160
2023-03-07T13:38:42.957Z,98160
2023-03-07T13:40:54.418Z,98160
2023-03-07T13:42:45.639Z,98160
2023-03-07T13:44:41.785Z,98160
2023-03-07T13:46:51.686Z,98160
2023-03-07T13:49:00.008Z,98160
2023-03-07T13:51:06.798Z,98160
2023-03-07T13:52:45.310Z,98160
2023-03-07T13:54:43.216Z,98160
2023-03-07T13:56:42.248Z,98160
2023-03-07T13:58:46.852Z,98160
2023-03-07T14:00:50.246Z,98160
2023-03-07T14:02:42.918Z,98160
2023-03-07T14:04:44.959Z,98160
2023-03-07T14:06:43.812Z,98160
2023-03-07T14:08:41.639Z,98160
2023-03-07T14:10:45.032Z,98160
2023-03-07T14:12:56.069Z,98160
2023-03-07T14:15:04.089Z,98160
2023-03-07T14:16:50.503Z,98160
2023-03-07T14:18:52.124Z,98160
2023-03-07T14:20:54.756Z,98160
2023-03-07T14:22:54.331Z,98160
2023-03-07T14:24:51.958Z,98160
2023-03-07T14:26:43.478Z,98160
2023-03-07T14:28:48.020Z,98160
2023-03-07T14:30:39.235Z,98160
2023-03-07T14:32:40.536Z,98160
2023-03-07T14:34:46.751Z,98160
2023-03-07T14:36:38.859Z,98160
2023-03-07T14:38:40.622Z,98160
2023-03-07T14:40:52.508Z,98170
2023-03-07T14:42:44.575Z,98170
2023-03-07T14:44:55.445Z,98170
2023-03-07T14:46:50.609Z,98170
2023-03-07T14:48:48.634Z,98170
2023-03-07T14:50:42.179Z,98170
2023-03-07T14:52:39.319Z,98180
2023-03-07T14:54:37.707Z,98180
2023-03-07T14:56:37.873Z,98180
2023-03-07T14:58:47.313Z,98180
2023-03-07T15:00:37.354Z,98180
2023-03-07T15:02:45.236Z,98190
2023-03-07T15:04:36.937Z,98190
2023-03-07T15:06:42.843Z,98190
2023-03-07T15:08:36.600Z,98190
2023-03-07T15:10:40.768Z,98190
2023-03-07T15:12:36.805Z,98190
2023-03-07T15:14:42.918Z,98190
2023-03-07T15:16:41.919Z,98190
2023-03-07T15:18:38.526Z,98190
2023-03-07T15:20:35.838Z,98190
2023-03-07T15:22:37.145Z,98190
2023-03-07T15:24:38.057Z,98190
2023-03-07T15:26:35.427Z,98190
2023-03-07T15:28:37.088Z,98200
2023-03-07T15:30:37.561Z,98200
2023-03-07T15:32:38.018Z,98200
2023-03-07T15:34:36.829Z,98200
2023-03-07T15:36:34.733Z,98200
2023-03-07T15:38:34.768Z,98200
2023-03-07T15:40:36.577Z,98200
2023-03-07T15:42:48.168Z,98200
2023-03-07T15:44:35.478Z,98200
2023-03-07T15:46:34.753Z,98200
2023-03-07T15:48:38.149Z,98200
2023-03-07T15:50:33.933Z,98200
2023-03-07T15:52:36.068Z,98200
2023-03-07T15:54:36.848Z,98200
2023-03-07T15:56:35.547Z,98200
2023-03-07T15:58:35.963Z,98200
2023-03-07T16:00:35.760Z,98200
2023-03-07T16:02:39.723Z,98200
2023-03-07T16:04:38.519Z,98210
2023-03-07T16:06:40.922Z,98210
2023-03-07T16:08:32.560Z,98210
2023-03-07T16:10:32.426Z,98210
2023-03-07T16:12:33.035Z,98210
2023-03-07T16:14:33.057Z,98210
2023-03-07T16:16:32.632Z,98210
2023-03-07T16:18:33.034Z,98210
2023-03-07T16:20:31.790Z,98210
2023-03-07T16:22:31.635Z,98210
2023-03-07T16:24:31.724Z,98210
2023-03-07T16:26:32.412Z,98210
2023-03-07T16:28:32.103Z,98210
2023-03-07T16:30:32.745Z,98210
2023-03-07T16:32:30.997Z,98210
2023-03-07T16:34:30.884Z,98210
2023-03-07T16:36:30.834Z,98210
2023-03-07T16:38:30.548Z,98210
2023-03-07T16:40:31.833Z,98210
2023-03-07T16:42:30.428Z,98210
2023-03-07T16:44:30.329Z,98210
2023-03-07T16:46:30.324Z,98210
2023-03-07T16:48:30.007Z,98210
2023-03-07T16:50:31.765Z,98210
2023-03-07T16:52:29.890Z,98210
2023-03-07T16:54:29.375Z,98220
2023-03-07T16:56:31.964Z,98220
2023-03-07T16:58:32.637Z,98220
2023-03-07T17:00:29.019Z,98220
2023-03-07T17:02:28.982Z,98220
2023-03-07T17:04:29.302Z,98220
2023-03-07T17:06:38.921Z,98220
2023-03-07T17:08:28.436Z,98220
2023-03-07T17:10:28.406Z,98220
2023-03-07T17:12:28.097Z,98220
2023-03-07T17:14:28.217Z,98230
2023-03-07T17:16:28.222Z,98230
2023-03-07T17:18:27.606Z,98230
2023-03-07T17:20:27.883Z,98240
2023-03-07T17:22:27.516Z,98240
2023-03-07T17:24:28.948Z,98240
2023-03-07T17:26:29.820Z,98240
2023-03-07T17:28:27.098Z,98240
2023-03-07T17:30:29.072Z,98240
2023-03-07T17:32:26.788Z,98240
2023-03-07T17:34:28.615Z,98240
2023-03-07T17:36:26.519Z,98240
2023-03-07T17:38:26.310Z,98240
2023-03-07T17:40:26.335Z,98240
2023-03-07T17:42:26.172Z,98240
2023-03-07T17:44:26.064Z,98250
2023-03-07T17:46:25.878Z,98250
2023-03-07T17:48:26.249Z,98250
2023-03-07T17:50:25.478Z,98250
2023-03-07T17:52:25.543Z,98250
2023-03-07T17:54:25.439Z,98250
2023-03-07T17:56:25.541Z,98250
2023-03-07T17:58:24.939Z,98250
2023-03-07T18:00:25.775Z,98250
2023-03-07T18:02:24.925Z,98250
2023-03-07T18:04:24.610Z,98250
2023-03-07T18:06:25.294Z,98250
2023-03-07T18:08:24.487Z,98250
2023-03-07T18:10:24.386Z,98250
2023-03-07T18:12:24.542Z,98260
2023-03-07T18:14:24.097Z,98260
2023-03-07T18:16:24.385Z,98260
2023-03-07T18:18:24.087Z,98260
2023-03-07T18:20:23.595Z,98260
2023-03-07T18:22:23.338Z,98260
2023-03-07T18:24:25.057Z,98260
2023-03-07T18:26:23.962Z,98260
2023-03-07T18:28:23.054Z,98260
2023-03-07T18:30:23.098Z,98260
2023-03-07T18:32:23.077Z,98260
2023-03-07T18:34:22.763Z,98260
2023-03-07T18:36:24.609Z,98260
2023-03-07T18:38:22.876Z,98260
2023-03-07T18:40:22.274Z,98260
2023-03-07T18:42:22.312Z,98260
2023-03-07T18:44:22.060Z,98260
2023-03-07T18:46:24.016Z,98270
2023-03-07T18:48:21.816Z,98270
2023-03-07T18:50:21.624Z,98270
2023-03-07T18:52:21.570Z,98270
2023-03-07T18:54:21.396Z,98270
2023-03-07T18:56:21.339Z,98270
2023-03-07T18:58:21.417Z,98270
2023-03-07T19:00:21.810Z,98270
2023-03-07T19:02:20.922Z,98270
2023-03-07T19:04:20.822Z,98270
2023-03-07T19:06:22.668Z,98280
2023-03-07T19:08:20.547Z,98280
2023-03-07T19:10:20.484Z,98280
2023-03-07T19:12:20.364Z,98280
2023-03-07T19:14:20.151Z,98280
2023-03-07T19:16:22.590Z,98280
2023-03-07T19:18:19.911Z,98280
2023-03-07T19:20:19.979Z,98280
2023-03-07T19:22:19.804Z,98280
2023-03-07T19:24:19.584Z,98280
2023-03-07T19:26:21.040Z,98280
2023-03-07T19:28:19.243Z,98280
2023-03-07T19:30:19.482Z,98280
2023-03-07T19:32:19.121Z,98280
2023-03-07T19:34:18.999Z,98280
2023-03-07T19:36:20.996Z,98280
2023-03-07T19:38:18.692Z,98280
2023-03-07T19:40:18.883Z,98280
2023-03-07T19:42:18.438Z,98280
2023-03-07T19:44:18.276Z,98280
2023-03-07T19:46:20.169Z,98280
2023-03-07T19:48:18.183Z,98280
2023-03-07T19:50:18.108Z,98280
2023-03-07T19:52:17.755Z,98280
2023-03-07T19:54:17.734Z,98280
2023-03-07T19:56:20.407Z,98280
2023-03-07T19:58:17.451Z,98280
2023-03-07T20:00:17.937Z,98280
2023-03-07T20:02:17.241Z,98280
2023-03-07T20:04:17.196Z,98280
2023-03-07T20:06:20.043Z,98280
2023-03-07T20:08:16.782Z,98280
2023-03-07T20:10:17.168Z,98280
2023-03-07T20:12:16.412Z,98280
2023-03-07T20:14:16.289Z,98280
2023-03-07T20:16:18.109Z,98280
2023-03-07T20:18:15.962Z,98270
2023-03-07T20:20:16.134Z,98270
2023-03-07T20:22:15.800Z,98260
2023-03-07T20:24:15.665Z,98270
2023-03-07T20:26:17.502Z,98270
2023-03-07T20:28:15.236Z,98270
2023-03-07T20:30:15.301Z,98270
2023-03-07T20:32:15.835Z,98270
2023-03-07T20:34:14.773Z,98270
2023-03-07T20:36:17.045Z,98270
2023-03-07T20:38:14.653Z,98270
2023-03-07T20:40:16.067Z,98270
2023-03-07T20:42:14.098Z,98270
2023-03-07T20:44:15.059Z,98270
2023-03-07T20:46:15.314Z,98270
2023-03-07T20:48:13.661Z,98270
2023-03-07T20:50:13.497Z,98270
2023-03-07T20:52:13.268Z,98270
2023-03-07T20:54:15.325Z,98270
2023-03-07T20:56:13.729Z,98280
2023-03-07T20:58:12.743Z,98280
2023-03-07T21:00:13.708Z,98280
2023-03-07T21:02:12.377Z,98280
2023-03-07T21:04:13.888Z,98280
2023-03-07T21:06:12.151Z,98280
2023-03-07T21:08:11.920Z,98280
2023-03-07T21:10:12.120Z,98290
2023-03-07T21:12:11.570Z,98290
2023-03-07T21:14:12.187Z,98290
2023-03-07T21:16:13.664Z,98290
2023-03-07T21:18:11.008Z,98290
2023-03-07T21:20:11.642Z,98300
2023-03-07T21:22:10.709Z,98300
2023-03-07T21:24:11.484Z,98300
2023-03-07T21:26:12.355Z,98300
2023-03-07T21:28:10.426Z,98300
2023-03-07T21:30:11.068Z,98300
2023-03-07T21:32:09.837Z,98300
2023-03-07T21:34:12.543Z,98300
2023-03-07T21:36:11.175Z,98300
2023-03-07T21:38:09.215Z,98300
2023-03-07T21:40:10.469Z,98300
2023-03-07T21:42:08.842Z,98300
2023-03-07T21:44:09.724Z,98300
2023-03-07T21:46:10.426Z,98300
2023-03-07T21:48:08.342Z,98300
2023-03-07T21:50:09.585Z,98310
2023-03-07T21:52:07.985Z,98310
2023-03-07T21:54:07.736Z,98310
2023-03-07T21:56:10.129Z,98310
2023-03-07T21:58:07.344Z,98310
2023-03-07T22:00:10.346Z,98310
2023-03-07T22:02:08.550Z,98310
2023-03-07T22:04:06.768Z,98310
2023-03-07T22:06:07.901Z,98310
2023-03-07T22:08:06.926Z,98310
2023-03-07T22:10:07.081Z,98310
2023-03-07T22:12:06.671Z,98310
2023-03-07T22:14:05.718Z,98310
2023-03-07T22:16:09.274Z,98310
2023-03-07T22:18:05.684Z,98310
2023-03-07T22:20:06.106Z,98320
2023-03-07T22:22:05.048Z,98330
2023-03-07T22:24:04.971Z,98330
2023-03-07T22:26:06.469Z,98330
2023-03-07T22:28:04.423Z,98330
2023-03-07T22:30:05.059Z,98330
2023-03-07T22:32:04.812Z,98330
2023-03-07T22:34:03.782Z,98330
2023-03-07T22:36:06.094Z,98340
2023-03-07T22:38:03.287Z,98340
2023-03-07T22:40:03.514Z,98340
2023-03-07T22:42:03.034Z,98340
2023-03-07T22:44:03.018Z,98340
2023-03-07T22:46:03.430Z,98340
2023-03-07T22:48:02.229Z,98350
2023-03-07T22:50:02.786Z,98360
2023-03-07T22:52:02.005Z,98360
2023-03-07T22:54:02.740Z,98360
2023-03-07T22:56:01.300Z,98360
2023-03-07T22:58:01.321Z,98360
2023-03-07T23:00:00.993Z,98360
2023-03-07T23:02:00.625Z,98360
2023-03-07T23:04:00.504Z,98360
2023-03-07T23:06:00.277Z,98360
2023-03-07T23:08:00.347Z,98360
2023-03-07T23:09:59.820Z,98360
2023-03-07T23:11:59.476Z,98360
2023-03-07T23:13:59.981Z,98360
2023-03-07T23:15:59.199Z,98360
2023-03-07T23:17:59.124Z,98370
2023-03-07T23:19:58.446Z,98370
2023-03-07T23:21:58.333Z,98370
2023-03-07T23:23:59.632Z,98380
2023-03-07T23:25:57.772Z,98380
2023-03-07T23:27:57.620Z,98380
2023-03-07T23:29:57.753Z,98380
2023-03-07T23:31:56.970Z,98380
2023-03-07T23:33:59.219Z,98380
2023-03-07T23:35:58.535Z,98380
2023-03-07T23:37:56.246Z,98380
2023-03-07T23:39:56.032Z,98380
2023-03-07T23:41:55.822Z,98380
2023-03-07T23:43:58.306Z,98380
2023-03-07T23:45:55.391Z,98380
2023-03-07T23:47:55.071Z,98380
2023-03-07T23:49:54.800Z,98380
2023-03-07T23:51:54.658Z,98380
2023-03-07T23:53:54.613Z,98380
2023-03-07T23:55:54.007Z,98380
2023-03-07T23:57:54.163Z,98380
2023-03-07T23:59:53.489Z,98380
